createdAt,value
2023-02-08T00:00:40.533Z,-0.92
2023-02-08T00:03:09.615Z,-0.95
2023-02-08T00:05:22.260Z,-0.97
2023-02-08T00:07:34.806Z,-0.96
2023-02-08T00:09:47.469Z,-0.93
2023-02-08T00:12:00.048Z,-0.89
2023-02-08T00:14:12.691Z,-0.88
2023-02-08T00:16:25.540Z,-0.88
2023-02-08T00:18:38.133Z,-0.87
2023-02-08T00:20:51.376Z,-0.88
2023-02-08T00:23:03.935Z,-0.92
2023-02-08T00:25:16.522Z,-0.97
2023-02-08T00:27:29.148Z,-0.99
2023-02-08T00:29:41.677Z,-0.98
2023-02-08T00:31:54.319Z,-0.98
2023-02-08T00:34:07.043Z,-0.97
2023-02-08T00:36:19.694Z,-1.01
2023-02-08T00:38:32.352Z,-1.03
2023-02-08T00:40:44.971Z,-1.05
2023-02-08T00:42:57.611Z,-1.07
2023-02-08T00:45:10.467Z,-1.06
2023-02-08T00:47:23.542Z,-1.05
2023-02-08T00:49:36.431Z,-1.06
2023-02-08T00:51:49.208Z,-1.04
2023-02-08T00:54:01.923Z,-1.06
2023-02-08T00:56:15.854Z,-1.07
2023-02-08T00:58:28.501Z,-1.07
2023-02-08T01:00:41.519Z,-1.05
2023-02-08T01:02:54.368Z,-1.01
2023-02-08T01:05:07.946Z,-0.97
2023-02-08T01:07:20.543Z,-0.94
2023-02-08T01:09:33.652Z,-0.91
2023-02-08T01:11:46.269Z,-0.89
2023-02-08T01:13:59.339Z,-0.89
2023-02-08T01:16:14.834Z,-0.90
2023-02-08T01:18:27.480Z,-0.91
2023-02-08T01:20:40.333Z,-0.89
2023-02-08T01:22:53.129Z,-0.85
2023-02-08T01:25:05.869Z,-0.82
2023-02-08T01:27:18.420Z,-0.80
2023-02-08T01:29:31.064Z,-0.83
2023-02-08T01:31:45.213Z,-0.92
2023-02-08T01:33:59.159Z,-1.00
2023-02-08T01:36:12.271Z,-1.04
2023-02-08T01:38:24.985Z,-1.07
2023-02-08T01:40:37.642Z,-1.09
2023-02-08T01:42:50.290Z,-1.10
2023-02-08T01:45:23.017Z,-1.11
2023-02-08T01:47:35.620Z,-1.12
2023-02-08T01:49:48.345Z,-1.09
2023-02-08T01:52:14.528Z,-1.09
2023-02-08T01:54:30.413Z,-1.11
2023-02-08T01:56:45.868Z,-1.10
2023-02-08T01:59:01.739Z,-1.12
2023-02-08T02:01:14.578Z,-1.13
2023-02-08T02:03:27.435Z,-1.15
2023-02-08T02:05:42.919Z,-1.13
2023-02-08T02:07:57.473Z,-1.15
2023-02-08T02:10:16.221Z,-1.17
2023-02-08T02:12:31.843Z,-1.16
2023-02-08T02:14:45.669Z,-1.17
2023-02-08T02:17:00.793Z,-1.16
2023-02-08T02:19:25.134Z,-1.13
2023-02-08T02:21:48.606Z,-1.14
2023-02-08T02:24:26.737Z,-1.15
2023-02-08T02:27:17.080Z,-1.16
2023-02-08T02:29:51.257Z,-1.17
2023-02-08T02:32:23.462Z,-1.16
2023-02-08T02:35:04.004Z,-1.14
2023-02-08T02:37:37.633Z,-1.13
2023-02-08T02:40:09.096Z,-1.11
2023-02-08T02:43:01.579Z,-1.09
2023-02-08T02:45:26.640Z,-1.13
2023-02-08T02:47:49.729Z,-1.12
2023-02-08T02:50:16.918Z,-1.13
2023-02-08T02:52:39.514Z,-1.14
2023-02-08T02:54:55.626Z,-1.16
2023-02-08T02:57:14.930Z,-1.14
2023-02-08T02:59:28.705Z,-1.14
2023-02-08T03:01:44.132Z,-1.09
2023-02-08T03:03:57.014Z,-1.04
2023-02-08T03:06:20.149Z,-1.04
2023-02-08T03:09:06.940Z,-1.08
2023-02-08T03:11:31.610Z,-1.12
2023-02-08T03:14:16.880Z,-1.10
2023-02-08T03:17:00.697Z,-1.15
2023-02-08T03:19:30.990Z,-1.17
2023-02-08T03:21:51.207Z,-1.18
2023-02-08T03:24:17.793Z,-1.15
2023-02-08T03:26:37.714Z,-1.15
2023-02-08T03:29:08.806Z,-1.16
2023-02-08T03:31:38.180Z,-1.19
2023-02-08T03:34:07.266Z,-1.21
2023-02-08T03:36:27.366Z,-1.21
2023-02-08T03:38:42.999Z,-1.20
2023-02-08T03:40:59.856Z,-1.21
2023-02-08T03:43:22.204Z,-1.22
2023-02-08T03:45:43.752Z,-1.25
2023-02-08T03:48:00.222Z,-1.26
2023-02-08T03:50:17.369Z,-1.28
2023-02-08T03:52:31.500Z,-1.29
2023-02-08T03:54:52.001Z,-1.29
2023-02-08T03:57:20.845Z,-1.30
2023-02-08T03:59:38.783Z,-1.31
2023-02-08T04:01:58.558Z,-1.31
2023-02-08T04:04:14.149Z,-1.32
2023-02-08T04:06:27.559Z,-1.31
2023-02-08T04:08:40.134Z,-1.31
2023-02-08T04:10:52.819Z,-1.29
2023-02-08T04:13:05.368Z,-1.26
2023-02-08T04:15:18.189Z,-1.24
2023-02-08T04:17:32.239Z,-1.22
2023-02-08T04:19:44.832Z,-1.21
2023-02-08T04:21:57.430Z,-1.21
2023-02-08T04:24:10.026Z,-1.22
2023-02-08T04:26:22.600Z,-1.25
2023-02-08T04:28:35.180Z,-1.25
2023-02-08T04:30:47.873Z,-1.22
2023-02-08T04:33:00.857Z,-1.20
2023-02-08T04:35:13.508Z,-1.19
2023-02-08T04:37:26.116Z,-1.18
2023-02-08T04:39:38.805Z,-1.16
2023-02-08T04:41:51.380Z,-1.18
2023-02-08T04:44:04.014Z,-1.19
2023-02-08T04:46:16.945Z,-1.18
2023-02-08T04:48:29.663Z,-1.18
2023-02-08T04:50:42.701Z,-1.15
2023-02-08T04:52:55.514Z,-1.13
2023-02-08T04:55:08.256Z,-1.09
2023-02-08T04:57:20.825Z,-1.07
2023-02-08T04:59:33.339Z,-1.03
2023-02-08T05:01:45.991Z,-1.00
2023-02-08T05:03:58.534Z,-0.98
2023-02-08T05:06:11.372Z,-0.95
2023-02-08T05:08:23.979Z,-0.97
2023-02-08T05:10:36.559Z,-0.99
2023-02-08T05:12:49.154Z,-0.98
2023-02-08T05:15:01.914Z,-0.97
2023-02-08T05:17:14.546Z,-0.96
2023-02-08T05:19:27.303Z,-0.92
2023-02-08T05:21:40.012Z,-0.89
2023-02-08T05:23:52.664Z,-0.84
2023-02-08T05:26:07.686Z,-0.80
2023-02-08T05:28:20.481Z,-0.78
2023-02-08T05:30:33.118Z,-0.79
2023-02-08T05:32:45.975Z,-0.79
2023-02-08T05:34:58.581Z,-0.80
2023-02-08T05:37:12.443Z,-0.85
2023-02-08T05:39:24.994Z,-0.85
2023-02-08T05:41:37.510Z,-0.85
2023-02-08T05:43:50.106Z,-0.87
2023-02-08T05:46:03.511Z,-0.92
2023-02-08T05:48:16.059Z,-0.99
2023-02-08T05:50:28.645Z,-1.04
2023-02-08T05:52:41.339Z,-1.13
2023-02-08T05:54:53.969Z,-1.21
2023-02-08T05:57:06.567Z,-1.29
2023-02-08T05:59:19.121Z,-1.35
2023-02-08T06:01:31.886Z,-1.42
2023-02-08T06:03:44.496Z,-1.47
2023-02-08T06:06:04.122Z,-1.53
2023-02-08T06:08:16.944Z,-1.67
2023-02-08T06:10:29.528Z,-1.83
2023-02-08T06:12:42.096Z,-1.93
2023-02-08T06:14:54.688Z,-2.04
2023-02-08T06:17:07.275Z,-2.10
2023-02-08T06:19:19.875Z,-2.13
2023-02-08T06:21:32.652Z,-2.14
2023-02-08T06:23:45.314Z,-2.16
2023-02-08T06:25:58.240Z,-2.23
2023-02-08T06:28:10.960Z,-2.29
2023-02-08T06:30:23.602Z,-2.31
2023-02-08T06:32:36.188Z,-2.32
2023-02-08T06:34:50.628Z,-2.35
2023-02-08T06:37:05.564Z,-2.41
2023-02-08T06:39:18.176Z,-2.48
2023-02-08T06:41:30.742Z,-2.50
2023-02-08T06:43:43.326Z,-2.51
2023-02-08T06:45:55.857Z,-2.52
2023-02-08T06:48:08.456Z,-2.56
2023-02-08T06:50:23.164Z,-2.59
2023-02-08T06:52:37.142Z,-2.60
2023-02-08T06:54:49.735Z,-2.60
2023-02-08T06:57:02.253Z,-2.61
2023-02-08T06:59:14.790Z,-2.66
2023-02-08T07:01:27.359Z,-2.69
2023-02-08T07:03:40.975Z,-2.75
2023-02-08T07:06:04.457Z,-2.88
2023-02-08T07:08:17.688Z,-2.94
2023-02-08T07:10:30.237Z,-2.92
2023-02-08T07:12:42.766Z,-3.00
2023-02-08T07:14:55.358Z,-3.03
2023-02-08T07:17:07.980Z,-3.04
2023-02-08T07:19:20.549Z,-3.03
2023-02-08T07:21:33.447Z,-3.03
2023-02-08T07:23:45.933Z,-3.05
2023-02-08T07:25:59.948Z,-3.03
2023-02-08T07:28:12.502Z,-2.97
2023-02-08T07:30:25.053Z,-2.94
2023-02-08T07:32:37.570Z,-2.96
2023-02-08T07:34:50.278Z,-2.97
2023-02-08T07:37:02.824Z,-2.91
2023-02-08T07:39:15.371Z,-2.81
2023-02-08T07:41:27.894Z,-2.72
2023-02-08T07:43:42.044Z,-2.60
2023-02-08T07:45:55.055Z,-2.51
2023-02-08T07:48:07.728Z,-2.44
2023-02-08T07:50:20.344Z,-2.36
2023-02-08T07:52:32.996Z,-2.27
2023-02-08T07:54:45.502Z,-2.16
2023-02-08T07:56:58.137Z,-2.05
2023-02-08T07:59:11.130Z,-1.93
2023-02-08T08:01:23.813Z,-1.80
2023-02-08T08:03:36.598Z,-1.63
2023-02-08T08:05:53.071Z,-1.49
2023-02-08T08:08:06.838Z,-1.36
2023-02-08T08:10:19.404Z,-1.24
2023-02-08T08:12:31.944Z,-1.11
2023-02-08T08:14:44.495Z,-0.95
2023-02-08T08:16:57.040Z,-0.85
2023-02-08T08:19:09.623Z,-0.72
2023-02-08T08:21:22.175Z,-0.53
2023-02-08T08:23:36.123Z,-0.37
2023-02-08T08:25:48.777Z,-0.32
2023-02-08T08:28:02.157Z,-0.29
2023-02-08T08:30:16.724Z,-0.26
2023-02-08T08:32:29.423Z,-0.16
2023-02-08T08:34:42.055Z,-0.05
2023-02-08T08:36:54.628Z,0.14
2023-02-08T08:39:07.240Z,0.23
2023-02-08T08:41:22.344Z,0.22
2023-02-08T08:43:35.196Z,0.22
2023-02-08T08:45:49.142Z,0.35
2023-02-08T08:48:04.118Z,0.44
2023-02-08T08:50:16.731Z,0.44
2023-02-08T08:52:29.319Z,0.51
2023-02-08T08:54:41.933Z,0.61
2023-02-08T08:56:54.492Z,0.63
2023-02-08T08:59:06.976Z,0.64
2023-02-08T09:01:19.571Z,0.70
2023-02-08T09:03:32.368Z,0.82
2023-02-08T09:05:46.344Z,0.91
2023-02-08T09:07:58.846Z,0.95
2023-02-08T09:10:11.427Z,1.02
2023-02-08T09:12:23.972Z,1.08
2023-02-08T09:14:36.541Z,1.06
2023-02-08T09:16:49.215Z,1.07
2023-02-08T09:19:07.080Z,1.13
2023-02-08T09:21:22.372Z,1.18
2023-02-08T09:23:35.647Z,1.23
2023-02-08T09:25:50.088Z,1.30
2023-02-08T09:28:02.731Z,1.37
2023-02-08T09:30:15.326Z,1.47
2023-02-08T09:32:34.026Z,1.62
2023-02-08T09:34:47.034Z,1.74
2023-02-08T09:36:59.552Z,1.80
2023-02-08T09:39:18.856Z,1.83
2023-02-08T09:41:37.117Z,1.79
2023-02-08T09:44:07.759Z,1.82
2023-02-08T09:46:24.524Z,1.81
2023-02-08T09:48:40.997Z,1.79
2023-02-08T09:51:04.036Z,1.79
2023-02-08T09:53:34.307Z,1.78
2023-02-08T09:55:51.190Z,1.81
2023-02-08T09:58:15.868Z,1.87
2023-02-08T10:00:40.860Z,1.92
2023-02-08T10:02:57.808Z,1.94
2023-02-08T10:05:14.984Z,1.95
2023-02-08T10:07:28.810Z,1.89
2023-02-08T10:09:41.364Z,1.91
2023-02-08T10:12:22.394Z,1.95
2023-02-08T10:15:02.343Z,1.94
2023-02-08T10:17:34.249Z,1.85
2023-02-08T10:20:23.229Z,1.80
2023-02-08T10:22:54.155Z,1.70
2023-02-08T10:25:29.580Z,1.61
2023-02-08T10:28:20.749Z,1.57
2023-02-08T10:31:06.076Z,1.50
2023-02-08T10:33:28.841Z,1.50
2023-02-08T10:35:46.690Z,1.55
2023-02-08T10:37:59.374Z,1.61
2023-02-08T10:40:36.515Z,1.62
2023-02-08T10:43:19.510Z,1.57
2023-02-08T10:46:01.403Z,1.52
2023-02-08T10:48:29.363Z,1.46
2023-02-08T10:50:44.233Z,1.43
2023-02-08T10:52:56.793Z,1.40
2023-02-08T10:55:18.176Z,1.41
2023-02-08T10:57:34.842Z,1.45
2023-02-08T10:59:51.036Z,1.49
2023-02-08T11:02:20.083Z,1.50
2023-02-08T11:04:32.712Z,1.48
2023-02-08T11:06:47.698Z,1.56
2023-02-08T11:09:00.391Z,1.67
2023-02-08T11:11:12.952Z,1.74
2023-02-08T11:13:36.775Z,1.80
2023-02-08T11:16:01.433Z,1.85
2023-02-08T11:18:19.349Z,1.86
2023-02-08T11:20:40.118Z,1.89
2023-02-08T11:22:52.766Z,2.02
2023-02-08T11:25:07.099Z,2.09
2023-02-08T11:27:28.551Z,2.06
2023-02-08T11:29:41.173Z,2.03
2023-02-08T11:31:58.075Z,2.09
2023-02-08T11:34:11.513Z,2.10
2023-02-08T11:36:24.138Z,2.07
2023-02-08T11:38:42.415Z,2.05
2023-02-08T11:40:59.511Z,2.06
2023-02-08T11:43:32.358Z,2.07
2023-02-08T11:45:46.716Z,2.06
2023-02-08T11:48:01.660Z,2.18
2023-02-08T11:50:34.351Z,2.20
2023-02-08T11:53:14.223Z,2.18
2023-02-08T11:55:29.694Z,2.18
2023-02-08T11:58:01.211Z,2.12
2023-02-08T12:00:26.501Z,2.06
2023-02-08T12:02:40.986Z,2.07
2023-02-08T12:04:53.771Z,2.05
2023-02-08T12:07:17.350Z,2.05
2023-02-08T12:10:11.032Z,2.12
2023-02-08T12:12:39.666Z,2.19
2023-02-08T12:15:29.709Z,2.27
2023-02-08T12:18:07.423Z,2.46
2023-02-08T12:20:40.108Z,2.42
2023-02-08T12:23:27.753Z,2.27
2023-02-08T12:25:51.570Z,2.07
2023-02-08T12:28:29.936Z,1.97
2023-02-08T12:31:05.119Z,1.90
2023-02-08T12:33:37.561Z,1.86
2023-02-08T12:36:15.266Z,1.89
2023-02-08T12:39:17.981Z,1.89
2023-02-08T12:42:05.352Z,1.71
2023-02-08T12:44:51.224Z,1.64
2023-02-08T12:47:40.081Z,1.57
2023-02-08T12:50:24.435Z,1.50
2023-02-08T12:52:41.438Z,1.49
2023-02-08T12:55:02.872Z,1.52
2023-02-08T12:57:19.503Z,1.54
2023-02-08T12:59:39.112Z,1.52
2023-02-08T13:01:57.352Z,1.48
2023-02-08T13:04:36.070Z,1.49
2023-02-08T13:06:55.815Z,1.46
2023-02-08T13:09:22.001Z,1.47
2023-02-08T13:11:57.356Z,1.46
2023-02-08T13:14:31.861Z,1.44
2023-02-08T13:16:48.978Z,1.41
2023-02-08T13:19:34.199Z,1.46
2023-02-08T13:21:46.842Z,1.49
2023-02-08T13:24:00.465Z,1.50
2023-02-08T13:26:17.316Z,1.48
2023-02-08T13:28:30.404Z,1.46
2023-02-08T13:30:43.667Z,1.44
2023-02-08T13:32:57.719Z,1.47
2023-02-08T13:35:22.587Z,1.54
2023-02-08T13:37:35.937Z,1.68
2023-02-08T13:39:49.155Z,1.81
2023-02-08T13:42:04.256Z,1.91
2023-02-08T13:44:20.834Z,1.94
2023-02-08T13:46:45.010Z,1.91
2023-02-08T13:49:00.444Z,1.88
2023-02-08T13:51:33.260Z,1.93
2023-02-08T13:53:54.963Z,1.89
2023-02-08T13:56:34.551Z,1.86
2023-02-08T13:58:50.113Z,1.86
2023-02-08T14:01:08.828Z,1.96
2023-02-08T14:03:23.904Z,2.06
2023-02-08T14:06:10.405Z,2.14
2023-02-08T14:08:34.996Z,2.08
2023-02-08T14:11:02.594Z,2.04
2023-02-08T14:13:44.702Z,1.97
2023-02-08T14:16:29.566Z,1.85
2023-02-08T14:18:51.961Z,1.76
2023-02-08T14:21:07.301Z,1.74
2023-02-08T14:23:26.164Z,1.74
2023-02-08T14:25:45.188Z,1.71
2023-02-08T14:28:02.227Z,1.73
2023-02-08T14:30:17.774Z,1.76
2023-02-08T14:32:35.870Z,1.78
2023-02-08T14:34:48.803Z,1.77
2023-02-08T14:37:10.537Z,1.78
2023-02-08T14:39:28.978Z,1.81
2023-02-08T14:41:52.071Z,1.92
2023-02-08T14:44:39.578Z,1.95
2023-02-08T14:46:52.156Z,1.91
2023-02-08T14:49:18.067Z,1.92
2023-02-08T14:51:36.746Z,1.92
2023-02-08T14:53:56.849Z,1.90
2023-02-08T14:56:09.312Z,1.83
2023-02-08T14:58:27.847Z,1.78
2023-02-08T15:00:41.414Z,1.73
2023-02-08T15:02:54.594Z,1.74
2023-02-08T15:05:10.479Z,1.74
2023-02-08T15:07:42.506Z,1.72
2023-02-08T15:09:55.679Z,1.64
2023-02-08T15:12:23.908Z,1.62
2023-02-08T15:14:40.542Z,1.54
2023-02-08T15:16:55.377Z,1.50
2023-02-08T15:19:09.756Z,1.50
2023-02-08T15:21:36.522Z,1.46
2023-02-08T15:24:00.289Z,1.40
2023-02-08T15:26:23.435Z,1.34
2023-02-08T15:28:36.610Z,1.31
2023-02-08T15:31:09.192Z,1.23
2023-02-08T15:33:22.157Z,1.15
2023-02-08T15:35:35.433Z,1.09
2023-02-08T15:37:48.142Z,1.04
2023-02-08T15:40:02.672Z,1.01
2023-02-08T15:42:21.768Z,0.99
2023-02-08T15:44:34.948Z,0.95
2023-02-08T15:49:03.165Z,0.88
2023-02-08T15:51:16.877Z,0.85
2023-02-08T15:53:30.851Z,0.80
2023-02-08T15:55:50.533Z,0.79
2023-02-08T15:58:08.318Z,0.77
2023-02-08T16:00:31.672Z,0.73
2023-02-08T16:02:44.862Z,0.71
2023-02-08T16:04:58.963Z,0.67
2023-02-08T16:07:43.571Z,0.63
2023-02-08T16:09:57.153Z,0.54
2023-02-08T16:12:20.864Z,0.51
2023-02-08T16:14:50.690Z,0.47
2023-02-08T16:17:04.679Z,0.41
2023-02-08T16:19:32.475Z,0.40
2023-02-08T16:21:45.306Z,0.35
2023-02-08T16:24:11.152Z,0.33
2023-02-08T16:26:32.200Z,0.30
2023-02-08T16:28:52.411Z,0.27
2023-02-08T16:31:05.855Z,0.26
2023-02-08T16:33:19.518Z,0.25
2023-02-08T16:35:33.501Z,0.22
2023-02-08T16:37:46.214Z,0.21
2023-02-08T16:40:04.672Z,0.18
2023-02-08T16:42:29.957Z,0.14
2023-02-08T16:44:58.786Z,0.10
2023-02-08T16:47:34.464Z,0.05
2023-02-08T16:49:49.406Z,-0.01
2023-02-08T16:52:02.041Z,-0.03
2023-02-08T16:54:18.114Z,-0.05
2023-02-08T16:56:30.979Z,-0.06
2023-02-08T16:58:43.628Z,-0.08
2023-02-08T17:00:57.651Z,-0.10
2023-02-08T17:03:10.216Z,-0.13
2023-02-08T17:05:26.945Z,-0.16
2023-02-08T17:07:39.834Z,-0.18
2023-02-08T17:09:52.436Z,-0.20
2023-02-08T17:12:21.911Z,-0.22
2023-02-08T17:14:35.151Z,-0.26
2023-02-08T17:16:47.882Z,-0.26
2023-02-08T17:19:01.121Z,-0.27
2023-02-08T17:21:14.218Z,-0.28
2023-02-08T17:23:27.136Z,-0.29
2023-02-08T17:25:39.943Z,-0.29
2023-02-08T17:28:03.002Z,-0.29
2023-02-08T17:30:24.510Z,-0.31
2023-02-08T17:32:37.154Z,-0.34
2023-02-08T17:34:49.676Z,-0.35
2023-02-08T17:37:02.636Z,-0.37
2023-02-08T17:39:16.688Z,-0.38
2023-02-08T17:41:29.428Z,-0.40
2023-02-08T17:43:42.089Z,-0.42
2023-02-08T17:45:54.779Z,-0.42
2023-02-08T17:48:08.142Z,-0.44
2023-02-08T17:50:21.706Z,-0.45
2023-02-08T17:52:36.288Z,-0.46
2023-02-08T17:54:48.866Z,-0.48
2023-02-08T17:57:01.567Z,-0.50
2023-02-08T17:59:14.161Z,-0.51
2023-02-08T18:01:27.121Z,-0.53
2023-02-08T18:03:39.800Z,-0.56
2023-02-08T18:06:00.285Z,-0.57
2023-02-08T18:08:12.815Z,-0.59
2023-02-08T18:10:25.601Z,-0.60
2023-02-08T18:12:38.557Z,-0.60
2023-02-08T18:14:51.155Z,-0.60
2023-02-08T18:17:03.884Z,-0.60
2023-02-08T18:19:17.105Z,-0.61
2023-02-08T18:21:33.190Z,-0.63
2023-02-08T18:23:46.605Z,-0.63
2023-02-08T18:26:11.728Z,-0.65
2023-02-08T18:28:24.442Z,-0.68
2023-02-08T18:30:37.105Z,-0.68
2023-02-08T18:32:49.691Z,-0.68
2023-02-08T18:35:04.116Z,-0.68
2023-02-08T18:37:17.390Z,-0.68
2023-02-08T18:39:30.066Z,-0.67
2023-02-08T18:41:43.408Z,-0.67
2023-02-08T18:43:57.913Z,-0.68
2023-02-08T18:46:13.308Z,-0.67
2023-02-08T18:48:26.003Z,-0.68
2023-02-08T18:50:38.580Z,-0.68
2023-02-08T18:52:51.176Z,-0.69
2023-02-08T18:55:04.355Z,-0.69
2023-02-08T18:57:17.133Z,-0.69
2023-02-08T18:59:30.049Z,-0.69
2023-02-08T19:01:42.897Z,-0.69
2023-02-08T19:03:56.550Z,-0.71
2023-02-08T19:06:11.839Z,-0.71
2023-02-08T19:08:24.772Z,-0.73
2023-02-08T19:10:38.919Z,-0.74
2023-02-08T19:12:51.653Z,-0.76
2023-02-08T19:15:04.629Z,-0.74
2023-02-08T19:17:18.159Z,-0.71
2023-02-08T19:19:30.734Z,-0.71
2023-02-08T19:21:43.621Z,-0.71
2023-02-08T19:23:58.312Z,-0.74
2023-02-08T19:26:18.767Z,-0.76
2023-02-08T19:28:35.528Z,-0.82
2023-02-08T19:30:48.141Z,-0.87
2023-02-08T19:33:00.972Z,-0.92
2023-02-08T19:35:13.907Z,-0.94
2023-02-08T19:37:26.430Z,-0.95
2023-02-08T19:39:38.990Z,-0.96
2023-02-08T19:41:53.055Z,-0.98
2023-02-08T19:44:08.073Z,-1.04
2023-02-08T19:46:23.034Z,-1.10
2023-02-08T19:48:35.960Z,-1.15
2023-02-08T19:51:00.766Z,-1.18
2023-02-08T19:53:13.548Z,-1.20
2023-02-08T19:55:26.176Z,-1.20
2023-02-08T19:57:40.227Z,-1.21
2023-02-08T19:59:53.324Z,-1.24
2023-02-08T20:02:06.917Z,-1.28
2023-02-08T20:04:20.951Z,-1.29
2023-02-08T20:06:37.088Z,-1.30
2023-02-08T20:08:50.278Z,-1.33
2023-02-08T20:11:02.809Z,-1.36
2023-02-08T20:13:15.816Z,-1.37
2023-02-08T20:15:28.338Z,-1.38
2023-02-08T20:17:42.573Z,-1.37
2023-02-08T20:19:55.351Z,-1.38
2023-02-08T20:22:08.009Z,-1.37
2023-02-08T20:24:21.320Z,-1.35
2023-02-08T20:26:33.887Z,-1.34
2023-02-08T20:28:50.726Z,-1.34
2023-02-08T20:31:15.262Z,-1.37
2023-02-08T20:33:27.905Z,-1.41
2023-02-08T20:35:40.382Z,-1.45
2023-02-08T20:37:52.914Z,-1.47
2023-02-08T20:40:05.847Z,-1.49
2023-02-08T20:42:18.448Z,-1.50
2023-02-08T20:44:31.952Z,-1.52
2023-02-08T20:46:46.694Z,-1.52
2023-02-08T20:49:01.001Z,-1.55
2023-02-08T20:51:16.914Z,-1.59
2023-02-08T20:53:29.742Z,-1.66
2023-02-08T20:55:43.498Z,-1.78
2023-02-08T20:57:56.482Z,-1.87
2023-02-08T21:00:10.242Z,-1.96
2023-02-08T21:02:23.522Z,-2.02
2023-02-08T21:04:36.246Z,-2.11
2023-02-08T21:06:50.455Z,-2.16
2023-02-08T21:09:08.770Z,-2.19
2023-02-08T21:11:24.116Z,-2.21
2023-02-08T21:13:36.937Z,-2.23
2023-02-08T21:15:49.566Z,-2.25
2023-02-08T21:18:02.251Z,-2.27
2023-02-08T21:20:15.446Z,-2.31
2023-02-08T21:22:28.130Z,-2.33
2023-02-08T21:24:40.680Z,-2.38
2023-02-08T21:26:56.072Z,-2.45
2023-02-08T21:29:08.754Z,-2.55
2023-02-08T21:31:23.629Z,-2.63
2023-02-08T21:33:36.293Z,-2.69
2023-02-08T21:35:48.995Z,-2.73
2023-02-08T21:38:02.350Z,-2.72
2023-02-08T21:40:15.167Z,-2.70
2023-02-08T21:42:27.792Z,-2.67
2023-02-08T21:44:40.347Z,-2.66
2023-02-08T21:46:52.981Z,-2.66
2023-02-08T21:49:24.414Z,-2.64
2023-02-08T21:51:55.990Z,-2.69
2023-02-08T21:54:30.800Z,-2.77
2023-02-08T21:56:43.342Z,-2.86
2023-02-08T21:58:55.983Z,-2.97
2023-02-08T22:01:08.754Z,-3.05
2023-02-08T22:03:21.431Z,-3.11
2023-02-08T22:05:52.344Z,-3.14
2023-02-08T22:08:05.162Z,-3.18
2023-02-08T22:10:20.906Z,-3.20
2023-02-08T22:12:33.424Z,-3.19
2023-02-08T22:14:46.399Z,-3.16
2023-02-08T22:16:58.970Z,-3.11
2023-02-08T22:19:11.536Z,-3.08
2023-02-08T22:21:24.137Z,-3.03
2023-02-08T22:23:36.728Z,-2.97
2023-02-08T22:25:49.240Z,-2.92
2023-02-08T22:28:02.060Z,-2.86
2023-02-08T22:30:18.097Z,-2.81
2023-02-08T22:32:30.688Z,-2.76
2023-02-08T22:34:46.819Z,-2.74
2023-02-08T22:37:03.616Z,-2.72
2023-02-08T22:39:16.144Z,-2.70
2023-02-08T22:41:28.771Z,-2.66
2023-02-08T22:43:41.859Z,-2.64
2023-02-08T22:45:59.336Z,-2.61
2023-02-08T22:48:12.071Z,-2.61
2023-02-08T22:50:24.603Z,-2.60
2023-02-08T22:52:37.189Z,-2.60
2023-02-08T22:54:51.361Z,-2.60
2023-02-08T22:57:06.064Z,-2.60
2023-02-08T22:59:19.000Z,-2.60
2023-02-08T23:01:31.567Z,-2.62
2023-02-08T23:03:44.366Z,-2.63
2023-02-08T23:05:57.099Z,-2.62
2023-02-08T23:08:11.099Z,-2.63
2023-02-08T23:10:23.741Z,-2.63
2023-02-08T23:12:36.359Z,-2.62
2023-02-08T23:14:49.978Z,-2.60
2023-02-08T23:17:02.645Z,-2.57
2023-02-08T23:19:16.886Z,-2.54
2023-02-08T23:21:29.511Z,-2.53
2023-02-08T23:23:42.827Z,-2.51
2023-02-08T23:25:55.548Z,-2.50
2023-02-08T23:28:10.403Z,-2.51
2023-02-08T23:30:22.996Z,-2.52
2023-02-08T23:32:35.571Z,-2.50
2023-02-08T23:34:48.091Z,-2.50
2023-02-08T23:37:00.660Z,-2.50
2023-02-08T23:39:13.265Z,-2.49
2023-02-08T23:41:25.892Z,-2.50
2023-02-08T23:43:38.537Z,-2.52
2023-02-08T23:45:51.094Z,-2.52
2023-02-08T23:48:03.682Z,-2.53
2023-02-08T23:50:16.348Z,-2.54
2023-02-08T23:52:28.951Z,-2.52
2023-02-08T23:54:42.236Z,-2.50
2023-02-08T23:56:54.835Z,-2.48
2023-02-08T23:59:08.314Z,-2.47
